createdAt,value
2023-04-06T00:00:10.528Z,5.32
2023-04-06T00:02:44.201Z,4.43
2023-04-06T00:05:19.334Z,3.67
2023-04-06T00:07:53.823Z,3.90
2023-04-06T00:10:27.676Z,4.18
2023-04-06T00:13:01.868Z,4.00
2023-04-06T00:15:35.607Z,3.90
2023-04-06T00:18:09.219Z,3.97
2023-04-06T00:20:44.272Z,4.15
2023-04-06T00:23:17.837Z,3.95
2023-04-06T00:25:51.540Z,4.00
2023-04-06T00:28:26.862Z,4.10
2023-04-06T00:31:00.562Z,4.55
2023-04-06T00:33:35.138Z,3.53
2023-04-06T00:36:10.502Z,3.47
2023-04-06T00:38:44.166Z,3.88
2023-04-06T00:41:17.780Z,3.75
2023-04-06T00:43:51.843Z,3.90
2023-04-06T00:46:26.741Z,3.72
2023-04-06T00:49:00.304Z,4.75
2023-04-06T00:51:35.464Z,4.82
2023-04-06T00:54:09.068Z,5.20
2023-04-06T00:56:44.787Z,4.65
2023-04-06T00:59:18.521Z,4.07
2023-04-06T01:01:52.531Z,4.22
2023-04-06T01:04:41.448Z,5.40
2023-04-06T01:07:21.443Z,4.45
2023-04-06T01:10:10.063Z,5.43
2023-04-06T01:12:44.496Z,4.32
2023-04-06T01:15:29.234Z,4.00
2023-04-06T01:18:03.441Z,4.28
2023-04-06T01:20:37.093Z,4.50
2023-04-06T01:23:12.696Z,4.28
2023-04-06T01:25:52.657Z,4.20
2023-04-06T01:28:26.774Z,4.40
2023-04-06T01:31:09.111Z,4.72
2023-04-06T01:33:56.620Z,4.63
2023-04-06T01:36:32.309Z,4.57
2023-04-06T01:39:17.753Z,5.55
2023-04-06T01:41:51.395Z,4.80
2023-04-06T01:44:27.193Z,4.82
2023-04-06T01:47:12.015Z,4.38
2023-04-06T01:49:45.690Z,5.13
2023-04-06T01:52:20.013Z,4.97
2023-04-06T01:55:00.266Z,6.03
2023-04-06T01:58:06.039Z,5.50
2023-04-06T02:00:44.529Z,5.07
2023-04-06T02:03:18.746Z,4.53
2023-04-06T02:05:53.703Z,5.53
2023-04-06T02:08:33.280Z,5.15
2023-04-06T02:11:08.413Z,5.32
2023-04-06T02:13:48.036Z,5.00
2023-04-06T02:16:22.723Z,7.05
2023-04-06T02:18:56.955Z,6.63
2023-04-06T02:21:30.899Z,6.60
2023-04-06T02:24:04.647Z,6.93
2023-04-06T02:26:39.679Z,5.97
2023-04-06T02:29:13.278Z,6.07
2023-04-06T02:31:46.948Z,5.47
2023-04-06T02:34:20.659Z,5.38
2023-04-06T02:36:57.653Z,5.63
2023-04-06T02:39:31.360Z,5.20
2023-04-06T02:42:07.211Z,6.00
2023-04-06T02:44:40.911Z,5.40
2023-04-06T02:47:16.078Z,6.28
2023-04-06T02:49:54.359Z,5.63
2023-04-06T02:52:28.136Z,6.35
2023-04-06T02:55:01.773Z,5.85
2023-04-06T02:57:39.276Z,5.93
2023-04-06T03:00:14.194Z,5.35
2023-04-06T03:02:49.037Z,5.68
2023-04-06T03:05:24.562Z,5.90
2023-04-06T03:07:58.236Z,5.32
2023-04-06T03:10:42.448Z,5.22
2023-04-06T03:13:17.481Z,6.15
2023-04-06T03:16:03.670Z,5.68
2023-04-06T03:18:37.326Z,4.80
2023-04-06T03:21:11.176Z,5.90
2023-04-06T03:26:26.840Z,4.05
2023-04-06T03:29:01.878Z,4.63
2023-04-06T03:31:38.537Z,4.82
2023-04-06T03:34:28.310Z,5.32
2023-04-06T03:37:09.885Z,6.53
2023-04-06T03:39:48.407Z,5.70
2023-04-06T03:42:27.783Z,5.45
2023-04-06T03:45:10.483Z,5.13
2023-04-06T03:47:50.614Z,6.45
2023-04-06T03:50:25.276Z,6.13
2023-04-06T03:52:58.871Z,4.82
2023-04-06T03:55:32.505Z,5.57
2023-04-06T03:58:06.158Z,4.78
2023-04-06T04:00:41.433Z,5.63
2023-04-06T04:03:15.128Z,5.18
2023-04-06T04:05:49.346Z,4.85
2023-04-06T04:08:23.140Z,5.38
2023-04-06T04:10:56.694Z,5.97
2023-04-06T04:13:30.288Z,5.70
2023-04-06T04:16:06.114Z,5.70
2023-04-06T04:18:39.785Z,5.90
2023-04-06T04:21:13.682Z,5.22
2023-04-06T04:23:47.284Z,6.07
2023-04-06T04:26:20.974Z,6.82
2023-04-06T04:28:54.647Z,6.88
2023-04-06T04:31:29.777Z,6.13
2023-04-06T04:34:07.947Z,7.22
2023-04-06T04:36:43.036Z,6.40
2023-04-06T04:39:20.844Z,7.75
2023-04-06T04:42:02.470Z,7.45
2023-04-06T04:44:38.064Z,8.10
2023-04-06T04:47:13.266Z,6.53
2023-04-06T04:49:51.508Z,7.28
2023-04-06T04:52:29.626Z,7.43
2023-04-06T04:55:35.270Z,6.85
2023-04-06T04:58:10.080Z,7.20
2023-04-06T05:00:56.416Z,6.82
2023-04-06T05:03:32.497Z,7.68
2023-04-06T05:06:11.588Z,7.28
2023-04-06T05:08:47.958Z,6.90
2023-04-06T05:11:22.504Z,7.78
2023-04-06T05:14:02.854Z,7.13
2023-04-06T05:16:37.068Z,7.80
2023-04-06T05:19:12.582Z,6.78
2023-04-06T05:21:50.593Z,6.13
2023-04-06T05:24:24.220Z,7.20
2023-04-06T05:26:57.991Z,6.95
2023-04-06T05:29:31.906Z,6.82
2023-04-06T05:32:07.107Z,6.25
2023-04-06T05:34:42.971Z,6.20
2023-04-06T05:37:16.874Z,5.80
2023-04-06T05:39:50.767Z,5.93
2023-04-06T05:42:25.000Z,5.88
2023-04-06T05:45:02.259Z,4.85
2023-04-06T05:47:35.996Z,5.80
2023-04-06T05:50:20.601Z,6.30
2023-04-06T05:52:54.278Z,5.95
2023-04-06T05:55:30.044Z,6.50
2023-04-06T05:58:16.370Z,6.07
2023-04-06T06:00:50.719Z,5.13
2023-04-06T06:03:26.808Z,5.15
2023-04-06T06:06:05.798Z,5.03
2023-04-06T06:09:11.773Z,5.13
2023-04-06T06:11:52.116Z,5.40
2023-04-06T06:14:29.518Z,4.80
2023-04-06T06:17:03.404Z,5.40
2023-04-06T06:19:37.053Z,5.43
2023-04-06T06:22:15.129Z,5.60
2023-04-06T06:24:52.404Z,6.05
2023-04-06T06:27:27.635Z,5.53
2023-04-06T06:30:01.381Z,5.85
2023-04-06T06:32:38.282Z,4.35
2023-04-06T06:35:11.948Z,5.03
2023-04-06T06:37:47.398Z,5.30
2023-04-06T06:40:25.378Z,5.85
2023-04-06T06:43:00.770Z,5.95
2023-04-06T06:46:12.654Z,6.18
2023-04-06T06:48:47.773Z,5.13
2023-04-06T06:51:21.434Z,7.40
2023-04-06T06:53:56.401Z,6.15
2023-04-06T06:56:30.043Z,6.30
2023-04-06T06:59:03.760Z,9.30
2023-04-06T07:01:38.282Z,6.05
2023-04-06T07:04:12.152Z,5.60
2023-04-06T07:06:46.116Z,4.97
2023-04-06T07:09:21.379Z,7.78
2023-04-06T07:11:55.004Z,5.18
2023-04-06T07:14:28.590Z,5.95
2023-04-06T07:17:02.313Z,4.65
2023-04-06T07:19:36.329Z,4.65
2023-04-06T07:22:09.928Z,4.95
2023-04-06T07:24:44.914Z,5.38
2023-04-06T07:27:19.853Z,6.20
2023-04-06T07:29:53.508Z,5.18
2023-04-06T07:32:27.464Z,4.75
2023-04-06T07:35:01.200Z,4.55
2023-04-06T07:37:34.992Z,4.95
2023-04-06T07:40:11.626Z,4.88
2023-04-06T07:42:45.521Z,5.40
2023-04-06T07:45:19.156Z,4.82
2023-04-06T07:47:53.569Z,5.18
2023-04-06T07:50:27.266Z,4.72
2023-04-06T07:53:02.042Z,4.93
2023-04-06T07:55:38.788Z,5.03
2023-04-06T07:58:12.415Z,4.50
2023-04-06T08:00:46.102Z,4.65
2023-04-06T08:03:22.030Z,5.07
2023-04-06T08:05:56.303Z,5.70
2023-04-06T08:08:29.985Z,4.93
2023-04-06T08:11:07.435Z,5.20
2023-04-06T08:13:41.260Z,4.97
2023-04-06T08:16:15.019Z,5.10
2023-04-06T08:18:49.372Z,5.10
2023-04-06T08:21:22.954Z,5.15
2023-04-06T08:23:56.555Z,5.65
2023-04-06T08:26:31.642Z,4.68
2023-04-06T08:29:08.537Z,4.68
2023-04-06T08:31:42.190Z,5.03
2023-04-06T08:34:16.393Z,5.47
2023-04-06T08:36:50.256Z,5.13
2023-04-06T08:39:26.660Z,5.05
2023-04-06T08:42:04.147Z,5.28
2023-04-06T08:44:38.902Z,5.25
2023-04-06T08:47:12.761Z,5.40
2023-04-06T08:49:47.471Z,5.07
2023-04-06T08:52:21.878Z,5.82
2023-04-06T08:54:55.482Z,4.38
2023-04-06T08:57:31.204Z,4.93
2023-04-06T09:00:05.522Z,4.65
2023-04-06T09:02:42.475Z,5.63
2023-04-06T09:05:16.740Z,4.88
2023-04-06T09:07:50.450Z,4.70
2023-04-06T09:10:26.200Z,5.45
2023-04-06T09:13:07.728Z,4.15
2023-04-06T09:15:41.418Z,4.85
2023-04-06T09:18:15.012Z,5.07
2023-04-06T09:20:58.534Z,6.05
2023-04-06T09:23:32.372Z,5.22
2023-04-06T09:26:11.772Z,5.03
2023-04-06T09:28:51.028Z,4.82
2023-04-06T09:31:26.547Z,4.60
2023-04-06T09:34:00.203Z,5.22
2023-04-06T09:36:34.358Z,5.72
2023-04-06T09:39:08.570Z,5.75
2023-04-06T09:41:42.217Z,5.82
2023-04-06T09:44:17.231Z,4.90
2023-04-06T09:47:00.431Z,6.97
2023-04-06T09:49:36.430Z,5.80
2023-04-06T09:52:13.607Z,6.88
2023-04-06T09:54:52.520Z,5.43
2023-04-06T09:57:31.402Z,6.07
2023-04-06T10:00:10.969Z,6.00
2023-04-06T10:02:52.865Z,5.45
2023-04-06T10:05:36.180Z,5.90
2023-04-06T10:08:12.082Z,6.53
2023-04-06T10:10:45.954Z,6.22
2023-04-06T10:13:21.020Z,5.65
2023-04-06T10:15:57.237Z,5.97
2023-04-06T10:18:31.388Z,6.38
2023-04-06T10:21:11.039Z,5.40
2023-04-06T10:23:50.112Z,5.00
2023-04-06T10:26:24.235Z,5.53
2023-04-06T10:29:03.906Z,5.43
2023-04-06T10:31:45.652Z,6.18
2023-04-06T10:34:19.333Z,4.80
2023-04-06T10:36:52.893Z,5.47
2023-04-06T10:39:28.523Z,5.50
2023-04-06T10:42:08.928Z,5.68
2023-04-06T10:44:45.801Z,4.82
2023-04-06T10:47:21.037Z,6.82
2023-04-06T10:49:54.654Z,5.25
2023-04-06T10:52:28.228Z,6.45
2023-04-06T10:55:01.976Z,5.72
2023-04-06T10:57:37.538Z,5.25
2023-04-06T11:00:13.851Z,4.97
2023-04-06T11:02:49.557Z,5.07
2023-04-06T11:05:23.665Z,4.82
2023-04-06T11:07:59.042Z,6.13
2023-04-06T11:10:32.678Z,5.07
2023-04-06T11:13:06.774Z,6.18
2023-04-06T11:15:40.552Z,5.30
2023-04-06T11:18:19.270Z,5.82
2023-04-06T11:20:53.388Z,5.25
2023-04-06T11:23:27.423Z,4.82
2023-04-06T11:26:01.006Z,5.55
2023-04-06T11:28:34.781Z,6.03
2023-04-06T11:31:08.712Z,5.22
2023-04-06T11:33:43.843Z,5.82
2023-04-06T11:36:17.655Z,5.72
2023-04-06T11:38:51.736Z,6.05
2023-04-06T11:41:30.961Z,5.15
2023-04-06T11:44:04.885Z,6.43
2023-04-06T11:46:38.718Z,4.85
2023-04-06T11:49:19.117Z,5.05
2023-04-06T11:51:52.948Z,5.47
2023-04-06T11:54:34.156Z,5.60
2023-04-06T11:57:08.160Z,5.68
2023-04-06T11:59:41.906Z,5.60
2023-04-06T12:02:15.621Z,5.80
2023-04-06T12:04:50.730Z,6.00
2023-04-06T12:07:24.388Z,5.90
2023-04-06T12:09:58.291Z,5.13
2023-04-06T12:12:32.087Z,4.72
2023-04-06T12:15:06.452Z,4.88
2023-04-06T12:17:40.328Z,5.75
2023-04-06T12:20:25.983Z,6.15
2023-04-06T12:23:01.251Z,5.32
2023-04-06T12:25:34.889Z,5.25
2023-04-06T12:28:08.554Z,5.22
2023-04-06T12:38:45.945Z,5.13
2023-04-06T12:41:19.929Z,4.78
2023-04-06T12:43:53.505Z,5.10
2023-04-06T12:46:27.249Z,5.03
2023-04-06T12:49:02.170Z,4.70
2023-04-06T12:51:36.002Z,4.93
2023-04-06T12:54:12.023Z,4.85
2023-04-06T12:56:45.917Z,4.93
2023-04-06T12:59:19.574Z,5.97
2023-04-06T13:01:53.662Z,5.03
2023-04-06T13:04:27.467Z,5.00
2023-04-06T13:07:01.133Z,6.38
2023-04-06T13:09:36.209Z,7.13
2023-04-06T13:12:09.810Z,5.05
2023-04-06T13:14:43.430Z,5.15
2023-04-06T13:17:17.784Z,5.25
2023-04-06T13:19:51.544Z,5.75
2023-04-06T13:22:25.134Z,5.95
2023-04-06T13:25:00.296Z,5.57
2023-04-06T13:27:35.508Z,4.50
2023-04-06T13:30:10.798Z,4.90
2023-04-06T13:32:44.502Z,4.45
2023-04-06T13:35:18.862Z,5.47
2023-04-06T13:37:53.339Z,4.30
2023-04-06T13:40:31.018Z,5.55
2023-04-06T13:43:04.658Z,5.05
2023-04-06T13:45:39.007Z,4.65
2023-04-06T13:48:12.704Z,5.28
2023-04-06T13:50:46.860Z,5.03
2023-04-06T13:53:20.828Z,5.10
2023-04-06T13:55:58.746Z,4.10
2023-04-06T13:58:32.222Z,3.83
2023-04-06T14:01:07.345Z,4.28
2023-04-06T14:03:43.347Z,4.93
2023-04-06T14:08:53.801Z,4.82
2023-04-06T14:11:28.764Z,4.97
2023-04-06T14:14:02.725Z,4.68
2023-04-06T14:16:36.527Z,4.68
2023-04-06T14:19:10.656Z,3.92
2023-04-06T14:21:44.739Z,5.13
2023-04-06T14:24:18.699Z,4.35
2023-04-06T14:26:53.745Z,4.13
2023-04-06T14:29:27.267Z,4.38
2023-04-06T14:32:01.726Z,4.53
2023-04-06T14:34:35.539Z,4.35
2023-04-06T14:37:09.222Z,5.40
2023-04-06T14:39:43.283Z,4.55
2023-04-06T14:42:18.191Z,4.60
2023-04-06T14:44:51.946Z,6.65
2023-04-06T14:47:25.645Z,5.30
2023-04-06T14:49:59.169Z,5.32
2023-04-06T14:52:32.996Z,4.25
2023-04-06T14:55:07.224Z,5.65
2023-04-06T14:57:42.094Z,4.78
2023-04-06T15:00:16.675Z,4.93
2023-04-06T15:02:50.462Z,5.00
2023-04-06T15:05:24.073Z,5.57
2023-04-06T15:07:57.786Z,6.03
2023-04-06T15:10:33.221Z,4.65
2023-04-06T15:13:08.475Z,5.07
2023-04-06T15:15:44.251Z,6.13
2023-04-06T15:18:18.966Z,4.25
2023-04-06T15:20:53.702Z,5.65
2023-04-06T15:23:31.897Z,5.63
2023-04-06T15:26:07.619Z,5.20
2023-04-06T15:28:44.475Z,5.18
2023-04-06T15:31:35.983Z,5.32
2023-04-06T15:36:47.875Z,6.07
2023-04-06T15:39:21.931Z,5.40
2023-04-06T15:41:57.441Z,7.15
2023-04-06T15:44:32.574Z,5.50
2023-04-06T15:47:06.174Z,5.25
2023-04-06T15:49:39.671Z,4.60
2023-04-06T15:52:13.136Z,5.05
2023-04-06T15:54:47.700Z,5.97
2023-04-06T15:57:21.200Z,4.70
2023-04-06T15:59:56.329Z,5.82
2023-04-06T16:02:30.251Z,5.10
2023-04-06T16:05:04.022Z,5.75
2023-04-06T16:07:38.341Z,6.30
2023-04-06T16:10:12.391Z,7.22
2023-04-06T16:12:46.124Z,6.00
2023-04-06T16:15:21.003Z,5.80
2023-04-06T16:17:54.580Z,5.50
2023-04-06T16:20:28.068Z,5.38
2023-04-06T16:23:01.532Z,5.47
2023-04-06T16:25:35.163Z,5.93
2023-04-06T16:28:08.715Z,5.90
2023-04-06T16:30:46.738Z,5.93
2023-04-06T16:33:20.590Z,6.13
2023-04-06T16:35:54.082Z,6.97
2023-04-06T16:38:34.074Z,5.53
2023-04-06T16:41:07.593Z,7.25
2023-04-06T16:43:41.077Z,6.28
2023-04-06T16:46:16.331Z,5.55
2023-04-06T16:48:49.836Z,6.93
2023-04-06T16:51:23.300Z,6.72
2023-04-06T16:53:56.854Z,6.82
2023-04-06T16:56:30.755Z,6.75
2023-04-06T16:59:04.194Z,6.28
2023-04-06T17:01:39.173Z,6.15
2023-04-06T17:04:12.937Z,6.90
2023-04-06T17:06:46.547Z,6.40
2023-04-06T17:09:20.051Z,7.18
2023-04-06T17:11:53.510Z,6.43
2023-04-06T17:14:27.015Z,7.57
2023-04-06T17:17:03.648Z,6.43
2023-04-06T17:19:37.348Z,6.07
2023-04-06T17:22:10.921Z,7.07
2023-04-06T17:24:44.369Z,6.03
2023-04-06T17:27:17.867Z,6.00
2023-04-06T17:29:51.491Z,6.13
2023-04-06T17:32:27.899Z,7.15
2023-04-06T17:35:01.553Z,6.43
2023-04-06T17:43:57.991Z,6.80
2023-04-06T17:46:31.732Z,6.53
2023-04-06T17:49:08.482Z,6.15
2023-04-06T17:51:42.095Z,6.18
2023-04-06T17:54:15.854Z,5.93
2023-04-06T17:56:51.565Z,6.05
2023-04-06T17:59:25.410Z,6.72
2023-04-06T18:02:00.674Z,6.95
2023-04-06T18:04:39.813Z,6.78
2023-04-06T18:07:15.615Z,6.93
2023-04-06T18:09:51.031Z,7.03
2023-04-06T18:12:25.931Z,6.65
2023-04-06T18:15:00.039Z,6.70
2023-04-06T18:17:33.830Z,6.70
2023-04-06T18:20:11.456Z,6.43
2023-04-06T18:22:46.289Z,6.78
2023-04-06T18:25:20.033Z,6.97
2023-04-06T18:27:53.556Z,6.20
2023-04-06T18:30:27.392Z,7.32
2023-04-06T18:33:01.549Z,6.68
2023-04-06T18:35:36.775Z,7.07
2023-04-06T18:38:10.496Z,7.07
2023-04-06T18:40:44.169Z,8.20
2023-04-06T18:43:18.146Z,7.28
2023-04-06T18:45:52.205Z,6.50
2023-04-06T18:48:26.731Z,7.65
2023-04-06T18:51:04.004Z,6.93
2023-04-06T18:53:39.910Z,7.90
2023-04-06T18:56:18.706Z,7.85
2023-04-06T18:58:53.023Z,7.47
2023-04-06T19:01:29.392Z,6.97
2023-04-06T19:04:04.426Z,7.88
2023-04-06T19:06:41.092Z,6.93
2023-04-06T19:09:17.387Z,7.65
2023-04-06T19:11:51.684Z,8.27
2023-04-06T19:14:26.582Z,6.57
2023-04-06T19:17:00.773Z,6.90
2023-04-06T19:19:34.779Z,7.53
2023-04-06T19:22:11.040Z,7.13
2023-04-06T19:24:45.158Z,6.90
2023-04-06T19:27:18.918Z,7.32
2023-04-06T19:29:53.338Z,6.22
2023-04-06T19:32:27.224Z,6.90
2023-04-06T19:35:03.824Z,6.95
2023-04-06T19:37:40.225Z,6.70
2023-04-06T19:40:14.490Z,6.43
2023-04-06T19:42:48.299Z,6.90
2023-04-06T19:45:21.883Z,6.93
2023-04-06T19:47:55.427Z,6.72
2023-04-06T19:50:28.983Z,5.97
2023-04-06T19:53:08.136Z,7.32
2023-04-06T19:55:42.711Z,6.25
2023-04-06T19:58:16.304Z,6.97
2023-04-06T20:00:49.996Z,5.53
2023-04-06T20:03:23.613Z,6.20
2023-04-06T20:05:57.330Z,6.15
2023-04-06T20:08:32.560Z,6.57
2023-04-06T20:11:07.861Z,7.75
2023-04-06T20:13:41.377Z,6.38
2023-04-06T20:16:15.427Z,6.07
2023-04-06T20:18:49.039Z,6.88
2023-04-06T20:21:22.612Z,7.00
2023-04-06T20:23:57.864Z,6.28
2023-04-06T20:26:31.640Z,6.18
2023-04-06T20:29:05.234Z,6.85
2023-04-06T20:31:38.764Z,6.90
2023-04-06T20:34:12.431Z,6.40
2023-04-06T20:36:45.997Z,5.47
2023-04-06T20:39:21.801Z,6.43
2023-04-06T20:41:55.276Z,6.55
2023-04-06T20:44:28.759Z,6.45
2023-04-06T20:47:02.346Z,5.88
2023-04-06T20:49:35.920Z,6.07
2023-04-06T20:52:09.581Z,6.65
2023-04-06T20:54:44.440Z,6.45
2023-04-06T20:57:18.170Z,6.80
2023-04-06T20:59:51.689Z,6.63
2023-04-06T21:02:25.359Z,6.30
2023-04-06T21:04:59.065Z,5.40
2023-04-06T21:07:32.504Z,6.30
2023-04-06T21:10:08.728Z,6.40
2023-04-06T21:12:42.455Z,6.60
2023-04-06T21:15:15.984Z,7.03
2023-04-06T21:17:49.632Z,6.10
2023-04-06T21:20:23.212Z,5.85
2023-04-06T21:22:56.712Z,5.65
2023-04-06T21:25:31.645Z,6.40
2023-04-06T21:28:05.607Z,5.97
2023-04-06T21:30:39.879Z,5.00
2023-04-06T21:33:13.586Z,6.50
2023-04-06T21:35:47.077Z,6.13
2023-04-06T21:38:20.556Z,5.95
2023-04-06T21:40:58.507Z,5.53
2023-04-06T21:43:32.005Z,6.72
2023-04-06T21:46:06.011Z,6.00
2023-04-06T21:48:39.497Z,5.07
2023-04-06T21:51:18.158Z,4.43
2023-04-06T21:53:52.960Z,5.05
2023-04-06T21:56:27.909Z,4.93
2023-04-06T21:59:01.491Z,5.85
2023-04-06T22:01:34.984Z,4.72
2023-04-06T22:04:08.626Z,5.68
2023-04-06T22:06:43.052Z,5.30
2023-04-06T22:09:16.542Z,4.93
2023-04-06T22:11:51.439Z,5.30
2023-04-06T22:14:25.794Z,4.97
2023-04-06T22:16:59.437Z,5.05
2023-04-06T22:19:32.933Z,4.70
2023-04-06T22:22:06.863Z,4.85
2023-04-06T22:24:40.382Z,4.78
2023-04-06T22:27:15.259Z,4.72
2023-04-06T22:29:48.759Z,4.28
2023-04-06T22:32:22.336Z,4.15
2023-04-06T22:34:55.891Z,4.38
2023-04-06T22:37:29.384Z,3.92
2023-04-06T22:40:02.939Z,4.22
2023-04-06T22:42:37.822Z,4.13
2023-04-06T22:45:12.292Z,4.35
2023-04-06T22:47:45.861Z,4.05
2023-04-06T22:50:19.568Z,4.07
2023-04-06T22:52:53.186Z,3.25
2023-04-06T22:55:26.744Z,4.18
2023-04-06T22:58:01.598Z,5.05
2023-04-06T23:00:35.460Z,4.20
2023-04-06T23:03:09.047Z,4.22
2023-04-06T23:05:42.598Z,3.97
2023-04-06T23:08:16.075Z,4.45
2023-04-06T23:10:51.278Z,4.03
2023-04-06T23:13:26.200Z,4.25
2023-04-06T23:15:59.685Z,3.42
2023-04-06T23:18:33.142Z,3.85
2023-04-06T23:21:08.169Z,4.93
2023-04-06T23:23:41.639Z,3.83
2023-04-06T23:26:15.148Z,4.03
2023-04-06T23:28:50.011Z,4.82
2023-04-06T23:31:23.431Z,4.18
2023-04-06T23:33:56.903Z,3.90
2023-04-06T23:36:30.490Z,3.72
2023-04-06T23:39:04.082Z,4.18
2023-04-06T23:41:37.570Z,4.10
2023-04-06T23:44:12.483Z,3.65
2023-04-06T23:46:45.981Z,3.65
2023-04-06T23:49:19.628Z,4.53
2023-04-06T23:51:53.089Z,3.67
2023-04-06T23:54:27.124Z,4.68
2023-04-06T23:57:01.394Z,4.00
2023-04-06T23:59:36.268Z,3.10
